Time;durP1;ratioP1;P1;durP2;ratioP2;P2;SDS_P1;SDS_P2;PMS_P1;PMS_P2;Temp;Humidity;BMP_temperature;BMP_pressure;BME280_temperature;BME280_humidity;BME280_pressure;Samples;Min_cycle;Max_cycle;Signal;HPM_P1;HPM_P2
2023/07/15 00:01:34;;;;;;;4.95;3.50;;;;;;;19.05;75.51;100782.84;5024609;28;20257;-49
2023/07/15 00:03:59;;;;;;;6.25;4.05;;;;;;;19.09;74.85;100749.06;5021967;28;20157;-51
2023/07/15 00:06:25;;;;;;;3.53;3.22;;;;;;;19.11;74.60;100756.09;5015670;28;20548;-52
2023/07/15 00:08:52;;;;;;;4.65;3.30;;;;;;;19.08;74.74;100756.31;5026801;28;20850;-50
2023/07/15 00:11:29;;;;;;;5.03;3.42;;;;;;;19.00;75.62;100742.47;5017834;28;20187;-51
2023/07/15 00:13:58;;;;;;;6.22;3.63;;;;;;;18.98;75.74;100739.00;5020346;28;20188;-50
2023/07/15 00:16:26;;;;;;;4.40;3.70;;;;;;;18.97;75.55;100733.69;5020452;28;20226;-51
2023/07/15 00:18:51;;;;;;;6.45;3.67;;;;;;;18.97;75.20;100733.69;5023453;28;20638;-49
2023/07/15 00:21:23;;;;;;;4.32;3.38;;;;;;;18.90;74.93;100733.28;5021866;28;20179;-48
2023/07/15 00:23:55;;;;;;;6.00;3.08;;;;;;;18.90;74.46;100734.13;5015864;28;20188;-49
2023/07/15 00:26:22;;;;;;;4.43;3.47;;;;;;;18.98;73.91;100719.09;5017732;28;20249;-50
2023/07/15 00:28:50;;;;;;;3.63;3.20;;;;;;;18.97;73.51;100720.97;5020052;28;20214;-49
2023/07/15 00:31:17;;;;;;;3.60;3.13;;;;;;;19.02;73.41;100707.03;5015888;28;20235;-48
2023/07/15 00:33:44;;;;;;;4.72;3.20;;;;;;;19.06;72.56;100697.69;5009985;28;20273;-49
2023/07/15 00:36:10;;;;;;;3.95;3.08;;;;;;;19.09;72.51;100689.31;5026850;28;20192;-50
2023/07/15 00:38:36;;;;;;;6.35;3.42;;;;;;;19.03;72.27;100682.50;5025043;28;20188;-48
2023/07/15 00:41:03;;;;;;;3.90;3.10;;;;;;;19.05;72.13;100688.66;5015401;28;20187;-49
2023/07/15 00:43:58;;;;;;;6.05;3.60;;;;;;;19.04;71.52;100686.91;5020461;28;20276;-49
2023/07/15 00:46:43;;;;;;;4.78;3.17;;;;;;;18.99;71.99;100675.56;5020536;28;20580;-51
2023/07/15 00:49:10;;;;;;;5.93;3.17;;;;;;;18.98;71.88;100665.69;5018121;28;20181;-49
2023/07/15 00:51:42;;;;;;;4.70;3.35;;;;;;;19.04;70.93;100662.47;5029138;28;20176;-49
2023/07/15 00:54:11;;;;;;;4.68;3.30;;;;;;;19.05;70.56;100664.22;5021166;28;20180;-48
2023/07/15 00:56:37;;;;;;;4.32;3.45;;;;;;;19.02;70.61;100659.06;5020463;28;20294;-52
2023/07/15 00:59:04;;;;;;;4.30;3.45;;;;;;;19.04;70.40;100648.06;5019003;28;20268;-49
2023/07/15 01:01:30;;;;;;;4.53;3.03;;;;;;;18.98;70.75;100643.09;5018247;28;20274;-49
2023/07/15 01:03:56;;;;;;;4.35;3.47;;;;;;;18.98;70.42;100648.50;5016994;28;20187;-49
2023/07/15 01:06:23;;;;;;;4.90;2.90;;;;;;;18.94;70.73;100653.34;5010637;28;20275;-48
2023/07/15 01:08:49;;;;;;;5.97;3.50;;;;;;;18.92;70.61;100642.56;5020399;28;20696;-52
2023/07/15 01:11:15;;;;;;;6.00;3.22;;;;;;;18.97;70.69;100638.66;5022724;28;20244;-51
2023/07/15 01:13:40;;;;;;;4.85;3.03;;;;;;;18.90;70.90;100636.41;5019610;28;20207;-50
2023/07/15 01:16:06;;;;;;;6.28;3.40;;;;;;;18.88;70.58;100632.06;5022803;28;20204;-49
2023/07/15 01:18:31;;;;;;;3.03;2.70;;;;;;;18.89;70.88;100637.41;5022790;28;20180;-48
2023/07/15 01:20:59;;;;;;;3.80;3.50;;;;;;;18.81;70.84;100617.25;5018559;28;20186;-48
2023/07/15 01:23:28;;;;;;;4.93;3.45;;;;;;;18.84;71.08;100617.00;5023814;28;20176;-49
2023/07/15 01:25:54;;;;;;;4.57;2.92;;;;;;;18.89;70.60;100612.97;5014403;28;20205;-51
2023/07/15 01:28:19;;;;;;;5.40;2.75;;;;;;;18.94;70.49;100610.75;5020276;28;20179;-51
2023/07/15 01:30:45;;;;;;;8.70;3.50;;;;;;;18.95;70.35;100614.31;5023570;28;20216;-49
2023/07/15 01:33:15;;;;;;;5.07;3.70;;;;;;;18.89;70.33;100612.97;5015691;28;20200;-50
2023/07/15 01:35:46;;;;;;;5.97;3.35;;;;;;;18.91;70.28;100604.69;5016399;28;20199;-48
2023/07/15 01:38:11;;;;;;;3.97;3.13;;;;;;;18.92;69.90;100598.28;5013726;28;20187;-48
2023/07/15 01:40:38;;;;;;;4.38;3.17;;;;;;;18.94;69.90;100607.19;5018781;28;20677;-48
2023/07/15 01:43:04;;;;;;;5.60;3.10;;;;;;;18.94;69.17;100597.19;5019152;28;20180;-49
2023/07/15 01:45:30;;;;;;;3.72;3.33;;;;;;;18.94;69.51;100602.59;5022002;28;20200;-49
2023/07/15 01:47:57;;;;;;;4.10;3.30;;;;;;;18.96;69.39;100591.63;5017164;28;20673;-50
2023/07/15 01:50:23;;;;;;;4.50;3.03;;;;;;;18.98;68.78;100583.34;5017883;28;20184;-49
2023/07/15 01:52:48;;;;;;;3.78;3.30;;;;;;;18.97;68.80;100573.50;5014432;28;20224;-52
2023/07/15 01:55:14;;;;;;;3.50;3.00;;;;;;;18.93;68.94;100592.75;5014494;28;20717;-48
2023/07/15 01:57:39;;;;;;;4.32;3.40;;;;;;;19.00;68.60;100573.25;5018843;28;20326;-48
2023/07/15 02:00:06;;;;;;;6.90;3.15;;;;;;;19.02;68.87;100568.56;5021107;28;20172;-49
2023/07/15 02:02:38;;;;;;;3.95;3.20;;;;;;;19.00;68.58;100573.25;5018847;28;20646;-51
2023/07/15 02:05:04;;;;;;;4.63;3.20;;;;;;;19.02;68.31;100560.41;5019583;28;20207;-50
2023/07/15 02:07:29;;;;;;;6.03;3.63;;;;;;;18.98;68.19;100564.34;5016757;28;20293;-52
2023/07/15 02:09:55;;;;;;;4.10;3.10;;;;;;;18.97;68.24;100557.19;5020118;28;20605;-48
2023/07/15 02:12:20;;;;;;;6.50;3.33;;;;;;;18.91;68.30;100551.28;5014789;28;20296;-48
2023/07/15 02:14:46;;;;;;;4.47;3.20;;;;;;;18.97;68.23;100554.47;5026700;28;20249;-48
2023/07/15 02:17:12;;;;;;;4.63;3.00;;;;;;;18.96;67.86;100545.47;5023423;28;20883;-50
2023/07/15 02:19:37;;;;;;;3.78;3.00;;;;;;;18.90;68.37;100560.38;5018675;28;20210;-48
2023/07/15 02:22:03;;;;;;;5.45;3.22;;;;;;;18.93;67.98;100534.84;5015338;28;20172;-48
2023/07/15 02:24:29;;;;;;;3.75;3.17;;;;;;;19.00;67.53;100537.94;5021825;28;20321;-50
2023/07/15 02:26:54;;;;;;;5.75;3.30;;;;;;;18.97;67.58;100538.19;5017953;28;20263;-48
2023/07/15 02:29:20;;;;;;;4.28;2.83;;;;;;;18.91;67.60;100524.13;5026618;28;20179;-49
2023/07/15 02:31:46;;;;;;;4.85;2.92;;;;;;;18.94;67.58;100513.00;5019107;28;20183;-48
2023/07/15 02:34:13;;;;;;;5.07;2.97;;;;;;;19.04;66.96;100517.72;5013268;28;20200;-48
2023/07/15 02:36:39;;;;;;;5.00;3.03;;;;;;;19.03;66.83;100513.28;5017277;28;20215;-49
2023/07/15 02:39:05;;;;;;;3.72;2.83;;;;;;;19.03;66.97;100510.56;5020450;28;20172;-50
2023/07/15 02:41:32;;;;;;;7.43;3.45;;;;;;;19.01;66.75;100502.53;5016875;28;20164;-51
2023/07/15 02:43:58;;;;;;;6.43;3.10;;;;;;;19.03;66.69;100495.13;5016868;28;20188;-48
2023/07/15 02:46:24;;;;;;;4.13;2.97;;;;;;;18.97;66.66;100489.31;5019631;28;20223;-50
2023/07/15 02:48:50;;;;;;;3.60;2.97;;;;;;;19.07;66.22;100488.47;5018296;28;20180;-50
2023/07/15 02:51:15;;;;;;;3.70;3.40;;;;;;;19.02;65.97;100479.84;5019341;28;20554;-51
2023/07/15 02:53:40;;;;;;;3.72;3.08;;;;;;;19.00;66.39;100470.06;5018170;28;20569;-51
2023/07/15 02:56:06;;;;;;;6.00;3.15;;;;;;;19.01;65.74;100459.09;5019543;28;20196;-47
2023/07/15 02:58:32;;;;;;;4.45;3.20;;;;;;;18.99;66.07;100462.91;5016922;28;20211;-50
2023/07/15 03:00:57;;;;;;;3.35;3.05;;;;;;;18.99;65.89;100474.63;5013761;28;20173;-50
2023/07/15 03:03:23;;;;;;;7.20;3.13;;;;;;;18.96;65.90;100466.75;5015836;28;20246;-47
2023/07/15 03:05:50;;;;;;;3.20;2.90;;;;;;;18.99;66.04;100452.91;5023712;28;20223;-49
2023/07/15 03:08:16;;;;;;;4.05;3.33;;;;;;;19.03;65.72;100448.13;5017988;28;20173;-49
2023/07/15 03:10:43;;;;;;;4.45;3.20;;;;;;;18.99;65.55;100449.34;5016823;28;20191;-49
2023/07/15 03:13:09;;;;;;;4.60;2.92;;;;;;;18.98;65.60;100436.75;5019033;28;20685;-48
2023/07/15 03:15:35;;;;;;;5.32;3.22;;;;;;;18.96;65.57;100441.44;5019457;28;20201;-51
2023/07/15 03:18:02;;;;;;;3.38;3.08;;;;;;;19.02;65.26;100443.66;5026413;28;20516;-50
2023/07/15 03:20:28;;;;;;;4.05;2.90;;;;;;;18.98;65.41;100442.16;5024844;28;20684;-49
2023/07/15 03:22:54;;;;;;;3.97;2.83;;;;;;;18.94;65.28;100436.13;5026957;28;20173;-50
2023/07/15 03:25:20;;;;;;;6.80;3.05;;;;;;;18.91;65.47;100439.97;5022278;28;20199;-49
2023/07/15 03:27:47;;;;;;;5.03;3.08;;;;;;;18.91;65.59;100439.06;5020008;28;20629;-50
2023/07/15 03:30:13;;;;;;;4.38;3.00;;;;;;;18.92;65.60;100429.97;5020444;28;20184;-51
2023/07/15 03:32:40;;;;;;;5.22;3.28;;;;;;;18.97;65.59;100426.88;5018387;28;20522;-53
2023/07/15 03:35:08;;;;;;;5.30;3.13;;;;;;;18.92;65.59;100443.53;5018922;28;20554;-49
2023/07/15 03:37:35;;;;;;;3.95;2.63;;;;;;;18.99;64.70;100417.63;5023289;28;20315;-52
2023/07/15 03:40:07;;;;;;;4.15;2.95;;;;;;;18.99;64.88;100436.63;5026028;28;20187;-50
2023/07/15 03:42:32;;;;;;;3.13;2.83;;;;;;;18.97;64.91;100432.31;5034220;28;20555;-51
2023/07/15 03:44:58;;;;;;;4.68;2.58;;;;;;;19.06;64.69;100435.13;5024334;28;20188;-50
2023/07/15 03:47:23;;;;;;;5.53;2.85;;;;;;;19.05;64.38;100436.13;5014526;28;20720;-49
2023/07/15 03:49:49;;;;;;;7.53;2.90;;;;;;;19.09;64.71;100437.63;5015609;28;20188;-51
2023/07/15 03:52:14;;;;;;;4.20;2.80;;;;;;;19.09;64.50;100440.34;5022604;28;20223;-51
2023/07/15 03:54:42;;;;;;;3.85;2.72;;;;;;;19.10;64.71;100424.91;5021704;28;20283;-52
2023/07/15 03:57:07;;;;;;;4.32;3.05;;;;;;;19.07;64.48;100417.88;5018170;28;20190;-51
2023/07/15 03:59:33;;;;;;;3.50;2.83;;;;;;;19.08;64.50;100411.44;5015046;28;20177;-51
2023/07/15 04:01:58;;;;;;;3.97;2.88;;;;;;;19.01;64.80;100414.78;5018180;28;20257;-52
2023/07/15 04:04:24;;;;;;;3.13;2.75;;;;;;;19.00;64.74;100413.03;5019809;28;20164;-49
2023/07/15 04:06:50;;;;;;;3.78;2.67;;;;;;;19.05;64.63;100410.84;5022574;28;20595;-51
2023/07/15 04:09:16;;;;;;;8.50;3.00;;;;;;;18.99;65.00;100404.03;5018070;28;20175;-49
2023/07/15 04:11:43;;;;;;;3.35;2.75;;;;;;;18.99;64.63;100403.19;5023527;28;20168;-51
2023/07/15 04:14:08;;;;;;;5.15;2.90;;;;;;;18.85;65.15;100405.16;5019637;28;20267;-51
2023/07/15 04:16:34;;;;;;;6.28;3.22;;;;;;;18.89;65.44;100406.66;5022652;28;20307;-51
2023/07/15 04:18:59;;;;;;;2.70;2.50;;;;;;;18.80;65.91;100414.66;5018379;28;20520;-52
2023/07/15 04:21:25;;;;;;;5.05;3.25;;;;;;;18.78;65.80;100419.31;5017791;28;20267;-50
2023/07/15 04:23:52;;;;;;;2.95;2.72;;;;;;;18.79;65.87;100407.50;5021316;28;20180;-51
2023/07/15 04:26:25;;;;;;;3.50;3.17;;;;;;;18.75;66.11;100404.13;5017617;28;20242;-52
2023/07/15 04:28:51;;;;;;;3.60;3.10;;;;;;;18.71;66.04;100408.91;5024104;28;20633;-51
2023/07/15 04:31:18;;;;;;;6.22;2.67;;;;;;;18.77;66.02;100402.16;5022535;28;20239;-52
2023/07/15 04:33:47;;;;;;;3.85;2.75;;;;;;;18.80;66.47;100404.63;5020911;28;20353;-52
2023/07/15 04:36:13;;;;;;;2.83;2.60;;;;;;;18.78;66.51;100412.03;5018996;28;20212;-51
2023/07/15 04:38:39;;;;;;;4.22;2.80;;;;;;;18.76;66.65;100400.44;5035815;28;20183;-52
2023/07/15 04:41:05;;;;;;;3.72;2.75;;;;;;;18.78;66.17;100397.63;5016442;28;20268;-53
2023/07/15 04:43:31;;;;;;;4.30;3.20;;;;;;;18.76;66.41;100400.44;5014945;28;20657;-53
2023/07/15 04:45:57;;;;;;;6.35;2.97;;;;;;;18.72;66.13;100396.22;5021780;28;20239;-50
2023/07/15 04:48:23;;;;;;;3.35;2.90;;;;;;;18.78;66.52;100392.19;5025426;28;20639;-53
2023/07/15 04:50:52;;;;;;;3.97;2.63;;;;;;;18.85;66.28;100388.88;5019379;28;20210;-51
2023/07/15 04:53:17;;;;;;;4.25;2.90;;;;;;;18.97;66.20;100391.59;5021682;28;20304;-52
2023/07/15 04:55:44;;;;;;;4.32;2.80;;;;;;;19.02;66.21;100392.97;5019950;28;20195;-46
2023/07/15 04:58:11;;;;;;;5.32;2.80;;;;;;;19.09;66.09;100379.75;5026661;28;20176;-50
2023/07/15 05:00:36;;;;;;;3.00;2.70;;;;;;;19.15;66.00;100379.22;5029459;28;20187;-49
2023/07/15 05:03:06;;;;;;;4.80;2.67;;;;;;;19.15;66.01;100376.50;5030124;22;20216;-43
2023/07/15 05:05:31;;;;;;;4.18;2.65;;;;;;;19.13;65.63;100375.75;4986468;28;20200;-45
2023/07/15 05:08:12;;;;;;;5.07;2.95;;;;;;;19.23;65.54;100378.59;4985718;28;20655;-44
2023/07/15 05:10:38;;;;;;;7.10;2.95;;;;;;;19.15;66.11;100371.06;4978865;28;20173;-43
2023/07/15 05:13:04;;;;;;;4.75;2.50;;;;;;;19.18;65.86;100370.84;4980201;28;20217;-43
2023/07/15 05:15:29;;;;;;;3.55;2.72;;;;;;;19.19;65.96;100358.97;4978884;28;20444;-43
2023/07/15 05:17:55;;;;;;;3.70;2.80;;;;;;;19.18;65.86;100370.00;4984206;28;20173;-45
2023/07/15 05:20:20;;;;;;;2.85;2.65;;;;;;;19.23;65.98;100376.75;4978948;28;20215;-43
2023/07/15 05:22:46;;;;;;;4.25;2.58;;;;;;;19.35;65.79;100364.88;4985220;28;20227;-44
2023/07/15 05:25:12;;;;;;;5.65;2.42;;;;;;;19.46;65.25;100360.41;4982041;28;20198;-44
2023/07/15 05:27:38;;;;;;;3.78;2.45;;;;;;;19.58;65.21;100347.66;4985664;28;20642;-42
2023/07/15 05:30:04;;;;;;;5.47;2.95;;;;;;;19.69;65.19;100348.50;4986784;28;20312;-44
2023/07/15 05:32:30;;;;;;;6.95;2.70;;;;;;;19.81;65.14;100354.78;4978062;28;20206;-43
2023/07/15 05:34:55;;;;;;;3.53;2.63;;;;;;;19.91;64.93;100352.97;4987344;28;20643;-44
2023/07/15 05:37:21;;;;;;;4.55;2.75;;;;;;;19.96;64.39;100355.31;4981015;28;20188;-46
2023/07/15 05:39:46;;;;;;;3.00;2.70;;;;;;;20.08;64.32;100353.41;4982026;28;20184;-44
2023/07/15 05:42:12;;;;;;;5.28;2.85;;;;;;;20.10;64.65;100352.28;4991305;28;20175;-43
2023/07/15 05:44:37;;;;;;;4.18;2.63;;;;;;;20.16;64.22;100351.75;4985787;28;20556;-44
2023/07/15 05:47:03;;;;;;;4.68;2.38;;;;;;;20.17;63.78;100352.63;4985562;28;20198;-43
2023/07/15 05:49:28;;;;;;;3.53;2.60;;;;;;;20.20;64.22;100346.03;4993165;28;20588;-43
2023/07/15 05:51:54;;;;;;;5.38;2.72;;;;;;;20.18;63.67;100343.44;4985835;28;20592;-44
2023/07/15 05:54:19;;;;;;;3.92;2.90;;;;;;;20.17;63.93;100345.31;4986795;28;20173;-44
2023/07/15 05:56:45;;;;;;;4.90;2.83;;;;;;;20.14;64.61;100350.19;4984236;28;20801;-43
2023/07/15 05:59:10;;;;;;;4.60;2.55;;;;;;;20.35;64.41;100344.72;4986673;28;20183;-44
2023/07/15 06:01:36;;;;;;;6.82;3.10;;;;;;;20.35;63.83;100342.84;4985881;28;20635;-44
2023/07/15 06:04:01;;;;;;;4.45;2.38;;;;;;;20.34;63.42;100334.84;4983385;28;20173;-45
2023/07/15 06:06:27;;;;;;;3.33;2.70;;;;;;;20.39;64.04;100327.13;4984811;28;20214;-45
2023/07/15 06:08:52;;;;;;;5.18;2.80;;;;;;;20.43;63.64;100334.03;4992651;28;20170;-46
2023/07/15 06:11:19;;;;;;;7.13;3.00;;;;;;;20.47;63.70;100334.63;4988892;28;20281;-44
2023/07/15 06:13:44;;;;;;;7.25;2.92;;;;;;;20.51;63.17;100334.22;4979159;28;20213;-44
2023/07/15 06:16:10;;;;;;;2.50;2.30;;;;;;;20.61;63.37;100333.44;4986536;28;20251;-44
2023/07/15 06:18:35;;;;;;;5.30;2.50;;;;;;;20.71;63.21;100343.38;4985903;28;20519;-44
2023/07/15 06:21:00;;;;;;;4.13;2.83;;;;;;;20.92;62.60;100337.00;4994956;28;20181;-45
2023/07/15 06:23:26;;;;;;;4.28;2.88;;;;;;;20.99;62.55;100335.47;4979225;28;20409;-45
2023/07/15 06:25:51;;;;;;;3.97;2.60;;;;;;;21.04;62.52;100345.97;4979356;28;20239;-44
2023/07/15 06:28:17;;;;;;;4.72;2.53;;;;;;;21.12;61.70;100336.09;4977841;28;20181;-43
2023/07/15 06:30:44;;;;;;;2.95;2.63;;;;;;;21.12;61.69;100340.66;4981155;28;20766;-44
2023/07/15 06:33:10;;;;;;;2.90;2.60;;;;;;;21.34;61.27;100343.19;4987437;28;20191;-43
2023/07/15 06:35:35;;;;;;;5.22;2.55;;;;;;;21.62;61.20;100347.97;4979006;28;20220;-43
2023/07/15 06:38:01;;;;;;;4.57;2.45;;;;;;;21.98;60.42;100330.91;4988930;28;20492;-43
2023/07/15 06:40:26;;;;;;;2.90;2.50;;;;;;;22.31;59.43;100319.69;4987692;28;20185;-45
2023/07/15 06:42:52;;;;;;;4.60;2.83;;;;;;;22.45;57.93;100291.06;4987153;28;20726;-43
2023/07/15 06:45:20;;;;;;;4.22;2.65;;;;;;;22.78;58.08;100298.69;4985305;28;20211;-43
2023/07/15 06:47:46;;;;;;;3.28;2.58;;;;;;;23.07;57.87;100305.91;4984488;28;20526;-46
2023/07/15 06:50:11;;;;;;;3.63;2.50;;;;;;;23.24;56.25;100293.28;4986138;28;20581;-46
2023/07/15 06:52:37;;;;;;;3.28;2.83;;;;;;;23.44;56.09;100289.41;4980843;28;20247;-43
2023/07/15 06:55:02;;;;;;;4.43;2.63;;;;;;;23.46;55.52;100281.03;4987607;28;20243;-44
2023/07/15 06:57:28;;;;;;;5.70;2.72;;;;;;;23.76;55.18;100277.09;4988866;28;20169;-46
2023/07/15 06:59:53;;;;;;;6.80;2.75;;;;;;;23.85;54.94;100265.22;4985545;28;20256;-45
2023/07/15 07:02:19;;;;;;;6.68;2.53;;;;;;;24.06;54.41;100258.53;4989404;28;20181;-46
2023/07/15 07:04:45;;;;;;;4.63;2.47;;;;;;;24.26;54.05;100253.69;4990615;28;20203;-46
2023/07/15 07:07:10;;;;;;;4.05;2.40;;;;;;;24.15;53.21;100246.59;4994675;28;20236;-45
2023/07/15 07:09:36;;;;;;;5.13;2.50;;;;;;;24.23;52.87;100248.56;4984081;28;20189;-45
2023/07/15 07:12:01;;;;;;;3.03;2.67;;;;;;;24.42;52.96;100231.91;4983198;28;20223;-46
2023/07/15 07:14:27;;;;;;;5.30;2.70;;;;;;;24.71;52.68;100232.53;4989954;28;20577;-46
2023/07/15 07:16:52;;;;;;;7.28;2.70;;;;;;;24.81;52.16;100231.38;4988924;28;20196;-44
2023/07/15 07:19:18;;;;;;;3.88;2.17;;;;;;;24.94;51.28;100225.44;4995833;28;20181;-45
2023/07/15 07:21:43;;;;;;;3.40;2.40;;;;;;;24.60;51.43;100215.41;4987807;28;20176;-46
2023/07/15 07:24:12;;;;;;;4.55;2.72;;;;;;;24.98;51.43;100228.72;4983955;28;20176;-44
2023/07/15 07:26:38;;;;;;;2.95;2.33;;;;;;;25.39;51.33;100231.59;4993137;28;20277;-45
2023/07/15 07:29:04;;;;;;;5.22;2.83;;;;;;;25.25;50.38;100213.88;4992365;28;20204;-45
2023/07/15 07:31:29;;;;;;;4.93;2.58;;;;;;;25.68;51.52;100223.69;4979437;28;20181;-45
2023/07/15 07:33:54;;;;;;;4.75;2.25;;;;;;;25.48;49.81;100206.72;4983265;28;20247;-45
2023/07/15 07:36:21;;;;;;;5.55;2.60;;;;;;;25.74;50.37;100210.34;4978765;28;20208;-45
2023/07/15 07:38:46;;;;;;;2.40;2.20;;;;;;;26.18;49.40;100205.31;4988794;28;20789;-44
2023/07/15 07:41:15;;;;;;;3.97;2.50;;;;;;;25.75;49.73;100192.81;4978878;28;20277;-43
2023/07/15 07:43:40;;;;;;;3.78;2.33;;;;;;;25.84;48.95;100197.25;4976215;28;20650;-44
2023/07/15 07:46:08;;;;;;;4.30;2.55;;;;;;;25.69;49.00;100199.84;4985231;28;20224;-45
2023/07/15 07:48:34;;;;;;;6.15;2.58;;;;;;;25.88;49.35;100193.19;4986584;28;20188;-46
2023/07/15 07:51:00;;;;;;;5.18;2.60;;;;;;;25.99;49.52;100187.31;4990932;28;20234;-47
2023/07/15 07:53:26;;;;;;;3.15;2.33;;;;;;;25.96;48.18;100178.59;4990315;28;20717;-45
2023/07/15 07:55:51;;;;;;;4.07;2.47;;;;;;;26.26;48.42;100188.81;4982881;28;20237;-46
2023/07/15 07:58:17;;;;;;;6.82;2.63;;;;;;;26.36;48.19;100190.50;4989390;28;20275;-44
2023/07/15 08:00:43;;;;;;;3.30;2.38;;;;;;;26.47;48.06;100182.72;4988781;28;20192;-45
2023/07/15 08:03:09;;;;;;;4.18;2.45;;;;;;;26.63;48.21;100201.06;4980248;28;20197;-44
2023/07/15 08:05:40;;;;;;;3.45;2.30;;;;;;;26.85;47.73;100180.19;4981565;28;20227;-45
2023/07/15 08:08:06;;;;;;;2.42;2.08;;;;;;;27.01;47.26;100178.38;4986063;28;20181;-45
2023/07/15 08:10:31;;;;;;;5.07;2.38;;;;;;;27.07;47.14;100189.50;4992251;28;20244;-43
2023/07/15 08:12:56;;;;;;;5.80;2.45;;;;;;;26.47;47.11;100171.72;4992765;28;20248;-45
2023/07/15 08:15:22;;;;;;;5.68;2.35;;;;;;;26.28;48.23;100183.13;4992408;28;20204;-43
2023/07/15 08:17:47;;;;;;;5.13;2.33;;;;;;;26.97;47.54;100186.13;4991727;28;20193;-46
2023/07/15 08:20:13;;;;;;;3.65;2.35;;;;;;;27.50;47.26;100181.63;4987190;28;20185;-44
2023/07/15 08:22:38;;;;;;;3.60;2.20;;;;;;;27.24;45.87;100172.91;4980011;28;20182;-45
2023/07/15 08:25:04;;;;;;;5.72;2.17;;;;;;;27.48;45.96;100186.44;4983884;28;20196;-45
2023/07/15 08:27:30;;;;;;;3.75;2.20;;;;;;;27.37;45.87;100159.38;4991061;28;20202;-44
2023/07/15 08:29:55;;;;;;;3.28;2.10;;;;;;;27.75;45.58;100164.91;4987328;28;20188;-44
2023/07/15 08:32:21;;;;;;;3.47;2.08;;;;;;;27.92;45.74;100154.59;4986868;28;20291;-45
2023/07/15 08:35:04;;;;;;;4.72;2.10;;;;;;;28.11;45.06;100151.28;4985232;28;20235;-44
2023/07/15 08:37:30;;;;;;;2.63;2.30;;;;;;;28.00;45.00;100145.41;4992848;28;20323;-44
2023/07/15 08:39:56;;;;;;;3.53;2.08;;;;;;;28.43;44.44;100151.09;4998777;28;20196;-44
2023/07/15 08:42:23;;;;;;;5.78;2.10;;;;;;;28.25;44.22;100155.09;4982424;28;20530;-46
2023/07/15 08:44:52;;;;;;;3.90;1.88;;;;;;;28.37;44.39;100143.59;4979508;28;20600;-44
2023/07/15 08:47:20;;;;;;;4.35;2.10;;;;;;;28.06;44.33;100139.16;4984079;28;20186;-45
2023/07/15 08:49:47;;;;;;;5.70;2.40;;;;;;;27.85;44.40;100145.38;4985314;28;20597;-44
2023/07/15 08:52:15;;;;;;;4.05;2.20;;;;;;;27.98;44.47;100144.75;4980470;28;20654;-44
2023/07/15 08:54:43;;;;;;;5.03;2.10;;;;;;;28.09;44.15;100141.50;4981319;28;20192;-47
2023/07/15 08:57:09;;;;;;;2.17;1.98;;;;;;;28.71;43.68;100138.34;4980655;28;20280;-44
2023/07/15 08:59:34;;;;;;;3.75;2.40;;;;;;;28.57;43.56;100141.13;4979134;28;20279;-44
2023/07/15 09:02:00;;;;;;;2.65;2.30;;;;;;;28.62;44.33;100150.50;4986423;28;20192;-44
2023/07/15 09:04:26;;;;;;;5.15;2.40;;;;;;;28.76;43.57;100146.03;4983380;28;20441;-44
2023/07/15 09:06:54;;;;;;;5.20;2.50;;;;;;;28.73;43.42;100157.44;4984667;28;20322;-45
2023/07/15 09:09:31;;;;;;;3.55;2.15;;;;;;;28.47;43.39;100142.25;4988432;28;20554;-43
2023/07/15 09:12:02;;;;;;;2.67;2.20;;;;;;;28.55;43.72;100150.44;4985657;28;20650;-44
2023/07/15 09:14:27;;;;;;;3.38;2.15;;;;;;;28.47;43.58;100144.13;4983010;28;20207;-45
2023/07/15 09:16:55;;;;;;;3.33;1.75;;;;;;;28.63;43.32;100135.69;4988096;28;20176;-45
2023/07/15 09:19:26;;;;;;;3.22;2.40;;;;;;;29.09;43.98;100148.34;4983767;28;20188;-43
2023/07/15 09:22:04;;;;;;;4.97;2.20;;;;;;;29.16;42.86;100146.47;4983509;28;20184;-44
2023/07/15 09:24:31;;;;;;;5.07;2.17;;;;;;;29.27;42.81;100143.19;4986492;28;20194;-44
2023/07/15 09:26:59;;;;;;;2.65;1.92;;;;;;;29.32;42.36;100146.25;4985773;28;20537;-44
2023/07/15 09:29:24;;;;;;;2.10;1.90;;;;;;;29.00;42.40;100153.09;4990884;28;20546;-44
2023/07/15 09:31:50;;;;;;;4.80;2.30;;;;;;;28.96;42.36;100141.59;4991152;28;20180;-44
2023/07/15 09:34:17;;;;;;;5.00;2.00;;;;;;;29.36;42.60;100152.19;4982002;28;20216;-44
2023/07/15 09:36:43;;;;;;;2.70;2.30;;;;;;;29.75;42.82;100153.63;4968246;28;20228;-43
2023/07/15 09:39:13;;;;;;;2.30;2.10;;;;;;;29.51;42.44;100144.69;4986934;28;20188;-45
2023/07/15 09:41:39;;;;;;;6.25;2.17;;;;;;;29.75;41.93;100145.34;4978762;28;20190;-43
2023/07/15 09:44:05;;;;;;;5.65;2.08;;;;;;;29.28;41.58;100127.50;4990209;28;20224;-44
2023/07/15 09:46:31;;;;;;;3.58;2.25;;;;;;;29.35;41.47;100131.19;4988279;28;20224;-43
2023/07/15 09:48:57;;;;;;;4.22;1.83;;;;;;;29.53;41.58;100131.53;4990192;28;20245;-44
2023/07/15 09:51:24;;;;;;;3.42;2.10;;;;;;;29.81;41.56;100130.72;4996732;28;20185;-45
2023/07/15 09:53:55;;;;;;;4.60;2.33;;;;;;;30.22;41.41;100129.06;4984200;28;20299;-44
2023/07/15 09:56:29;;;;;;;6.78;2.08;;;;;;;29.52;41.05;100120.72;4981378;28;20689;-45
2023/07/15 09:59:01;;;;;;;3.67;1.80;;;;;;;29.83;41.65;100131.38;4980750;28;20241;-43
2023/07/15 10:01:40;;;;;;;3.63;2.08;;;;;;;30.04;42.33;100149.78;4980857;28;20194;-44
2023/07/15 10:04:11;;;;;;;4.15;2.13;;;;;;;30.02;41.74;100143.59;4979671;28;20216;-43
2023/07/15 10:06:37;;;;;;;4.05;1.98;;;;;;;30.13;40.87;100137.53;4975489;28;20213;-47
2023/07/15 10:09:04;;;;;;;2.50;2.13;;;;;;;30.07;41.12;100134.75;4982615;28;20239;-47
2023/07/15 10:11:30;;;;;;;5.10;2.10;;;;;;;29.85;41.34;100147.78;4978313;28;20186;-44
2023/07/15 10:13:57;;;;;;;3.42;2.22;;;;;;;30.01;41.69;100149.34;4977735;28;21041;-43
2023/07/15 10:16:22;;;;;;;2.97;2.17;;;;;;;29.85;41.49;100154.13;4985735;28;20197;-44
2023/07/15 10:18:48;;;;;;;6.10;2.50;;;;;;;30.03;41.22;100152.78;4986921;28;20626;-45
2023/07/15 10:21:15;;;;;;;7.18;2.13;;;;;;;30.05;41.64;100161.72;4988398;28;20802;-43
2023/07/15 10:23:40;;;;;;;3.33;2.20;;;;;;;30.40;41.97;100165.34;4990150;28;20172;-43
2023/07/15 10:26:07;;;;;;;4.88;2.20;;;;;;;30.13;41.56;100161.53;4983126;28;20222;-43
2023/07/15 10:28:35;;;;;;;4.13;2.30;;;;;;;29.89;42.26;100165.63;4989648;28;20662;-44
2023/07/15 10:31:15;;;;;;;6.20;2.00;;;;;;;30.33;42.24;100179.13;4985616;28;20188;-43
2023/07/15 10:33:57;;;;;;;4.28;2.20;;;;;;;30.33;41.59;100158.94;4985593;28;20219;-43
2023/07/15 10:36:43;;;;;;;2.60;1.83;;;;;;;30.61;41.21;100167.13;4991826;28;20204;-45
2023/07/15 10:39:20;;;;;;;2.50;1.90;;;;;;;30.30;40.34;100148.28;4985783;28;20193;-43
2023/07/15 10:41:51;;;;;;;2.90;1.85;;;;;;;30.07;40.72;100152.16;4992704;28;20188;-45
2023/07/15 10:44:24;;;;;;;5.10;2.15;;;;;;;30.34;40.32;100147.66;4998071;28;20196;-44
2023/07/15 10:46:58;;;;;;;3.67;1.88;;;;;;;30.59;41.39;100164.59;4989004;28;20254;-44
2023/07/15 10:49:24;;;;;;;4.22;1.92;;;;;;;30.46;41.58;100174.72;4984465;28;20268;-44
2023/07/15 10:51:54;;;;;;;8.25;2.10;;;;;;;30.56;40.68;100164.97;4985210;28;20266;-44
2023/07/15 10:54:27;;;;;;;3.05;1.98;;;;;;;30.51;39.89;100139.88;5002584;28;20286;-43
2023/07/15 10:56:54;;;;;;;2.85;2.10;;;;;;;30.48;39.85;100148.59;4989111;28;20303;-43
2023/07/15 10:59:23;;;;;;;5.07;1.80;;;;;;;30.58;40.72;100153.72;4987774;28;20181;-43
2023/07/15 11:01:48;;;;;;;2.10;1.73;;;;;;;30.66;39.63;100139.72;4997218;28;20692;-44
2023/07/15 11:04:19;;;;;;;5.03;1.90;;;;;;;30.86;40.22;100158.34;4990360;28;20190;-43
2023/07/15 11:06:45;;;;;;;3.25;2.15;;;;;;;30.73;40.66;100154.44;4987914;28;20196;-45
2023/07/15 11:09:14;;;;;;;4.20;2.20;;;;;;;31.11;40.22;100150.31;4986056;28;20784;-44
2023/07/15 11:11:39;;;;;;;2.20;1.95;;;;;;;30.95;39.28;100135.78;4983123;28;20209;-45
2023/07/15 11:14:05;;;;;;;4.10;1.88;;;;;;;30.82;39.80;100143.19;4980456;28;20263;-44
2023/07/15 11:16:30;;;;;;;3.45;1.92;;;;;;;30.82;39.16;100140.41;4982833;28;20786;-45
2023/07/15 11:18:57;;;;;;;3.03;1.80;;;;;;;30.63;39.31;100137.34;4988534;28;20652;-43
2023/07/15 11:21:23;;;;;;;3.00;2.00;;;;;;;31.00;38.91;100137.94;4985633;28;20188;-43
2023/07/15 11:23:48;;;;;;;2.88;2.15;;;;;;;31.12;38.61;100132.66;4984996;28;20173;-44